Terminal Aerodrome Forecast
Issued by NWS

Home | Current Version | Previous Version | Text Only | Print | Product List | Glossary On
Versions: 1 2 3 4 5 6 7 8 9 10 11 12 13
000
FTUS42 KMLB 260500
TAFFPR
TAF
KFPR 260520Z 2606/2706 33005KT P6SM SKC
     FM261600 36007KT P6SM FEW030
     FM261800 03008KT P6SM SCT030
     FM270000 VRB02KT P6SM SKC=

USA.gov is the U.S. government's official web portal to all federal, state and local government web resources and services.